sensor_id;sensor_type;location;lat;lon;timestamp;pressure;altitude;pressure_sealevel;temperature;humidity
12963;BME280;6546;49.882;8.666;2023-04-27T00:01:48;100204.94;;;8.44;52.50
12963;BME280;6546;49.882;8.666;2023-04-27T00:04:15;100207.69;;;8.43;52.64
12963;BME280;6546;49.882;8.666;2023-04-27T00:06:43;100195.28;;;8.47;52.58
12963;BME280;6546;49.882;8.666;2023-04-27T00:09:10;100194.78;;;8.43;52.73
12963;BME280;6546;49.882;8.666;2023-04-27T00:11:36;100189.09;;;8.39;52.57
12963;BME280;6546;49.882;8.666;2023-04-27T00:14:03;100188.66;;;8.44;52.39
12963;BME280;6546;49.882;8.666;2023-04-27T00:16:29;100196.16;;;8.37;52.72
12963;BME280;6546;49.882;8.666;2023-04-27T00:18:56;100188.47;;;8.28;53.00
12963;BME280;6546;49.882;8.666;2023-04-27T00:21:22;100185.84;;;8.37;52.86
12963;BME280;6546;49.882;8.666;2023-04-27T00:23:50;100187.47;;;8.38;52.67
12963;BME280;6546;49.882;8.666;2023-04-27T00:26:17;100189.25;;;8.38;52.56
12963;BME280;6546;49.882;8.666;2023-04-27T00:28:44;100187.25;;;8.32;52.78
12963;BME280;6546;49.882;8.666;2023-04-27T00:31:11;100181.56;;;8.28;52.96
12963;BME280;6546;49.882;8.666;2023-04-27T00:33:37;100175.28;;;8.31;52.91
12963;BME280;6546;49.882;8.666;2023-04-27T00:36:05;100173.41;;;8.33;52.63
12963;BME280;6546;49.882;8.666;2023-04-27T00:38:31;100173.22;;;8.34;52.53
12963;BME280;6546;49.882;8.666;2023-04-27T00:41:02;100169.56;;;8.27;52.91
12963;BME280;6546;49.882;8.666;2023-04-27T00:43:30;100165.00;;;8.21;52.71
12963;BME280;6546;49.882;8.666;2023-04-27T00:45:57;100178.84;;;8.30;52.48
12963;BME280;6546;49.882;8.666;2023-04-27T00:48:25;100171.66;;;8.24;52.69
12963;BME280;6546;49.882;8.666;2023-04-27T00:50:51;100168.56;;;8.20;52.91
12963;BME280;6546;49.882;8.666;2023-04-27T00:53:18;100166.91;;;8.19;52.67
12963;BME280;6546;49.882;8.666;2023-04-27T00:55:46;100168.16;;;8.15;52.78
12963;BME280;6546;49.882;8.666;2023-04-27T00:58:13;100168.56;;;8.20;53.03
12963;BME280;6546;49.882;8.666;2023-04-27T01:00:40;100164.47;;;8.18;52.79
12963;BME280;6546;49.882;8.666;2023-04-27T01:03:07;100167.75;;;8.20;52.39
12963;BME280;6546;49.882;8.666;2023-04-27T01:05:33;100168.03;;;8.17;52.42
12963;BME280;6546;49.882;8.666;2023-04-27T01:08:01;100176.72;;;8.16;52.07
12963;BME280;6546;49.882;8.666;2023-04-27T01:10:28;100162.22;;;8.05;52.50
12963;BME280;6546;49.882;8.666;2023-04-27T01:12:54;100168.38;;;8.04;52.39
12963;BME280;6546;49.882;8.666;2023-04-27T01:15:23;100180.16;;;8.07;52.66
12963;BME280;6546;49.882;8.666;2023-04-27T01:17:56;100181.78;;;8.08;52.53
12963;BME280;6546;49.882;8.666;2023-04-27T01:20:23;100182.50;;;8.00;53.48
12963;BME280;6546;49.882;8.666;2023-04-27T01:22:49;100188.47;;;8.01;54.61
12963;BME280;6546;49.882;8.666;2023-04-27T01:25:17;100173.84;;;7.91;55.10
12963;BME280;6546;49.882;8.666;2023-04-27T01:27:44;100195.91;;;8.04;55.42
12963;BME280;6546;49.882;8.666;2023-04-27T01:30:11;100193.19;;;8.05;55.68
12963;BME280;6546;49.882;8.666;2023-04-27T01:32:37;100203.78;;;8.02;56.08
12963;BME280;6546;49.882;8.666;2023-04-27T01:35:04;100204.88;;;8.00;56.48
12963;BME280;6546;49.882;8.666;2023-04-27T01:37:31;100194.69;;;7.98;56.46
12963;BME280;6546;49.882;8.666;2023-04-27T01:39:57;100189.03;;;7.95;56.96
12963;BME280;6546;49.882;8.666;2023-04-27T01:42:25;100196.91;;;7.93;57.53
12963;BME280;6546;49.882;8.666;2023-04-27T01:44:52;100199.34;;;7.95;57.52
12963;BME280;6546;49.882;8.666;2023-04-27T01:47:18;100203.44;;;7.87;58.38
12963;BME280;6546;49.882;8.666;2023-04-27T01:49:45;100211.31;;;7.86;58.64
12963;BME280;6546;49.882;8.666;2023-04-27T01:52:11;100216.47;;;7.86;58.12
12963;BME280;6546;49.882;8.666;2023-04-27T01:54:38;100211.59;;;7.83;58.68
12963;BME280;6546;49.882;8.666;2023-04-27T01:57:04;100216.34;;;7.78;58.66
12963;BME280;6546;49.882;8.666;2023-04-27T01:59:32;100221.09;;;7.73;59.04
12963;BME280;6546;49.882;8.666;2023-04-27T02:01:59;100219.75;;;7.78;58.70
12963;BME280;6546;49.882;8.666;2023-04-27T02:04:27;100216.50;;;7.67;58.78
12963;BME280;6546;49.882;8.666;2023-04-27T02:06:54;100220.16;;;7.74;57.90
12963;BME280;6546;49.882;8.666;2023-04-27T02:09:20;100216.78;;;7.64;57.97
12963;BME280;6546;49.882;8.666;2023-04-27T02:11:47;100195.09;;;7.57;57.67
12963;BME280;6546;49.882;8.666;2023-04-27T02:14:13;100218.16;;;7.68;57.03
12963;BME280;6546;49.882;8.666;2023-04-27T02:16:41;100218.16;;;7.68;56.65
12963;BME280;6546;49.882;8.666;2023-04-27T02:19:07;100215.16;;;7.63;56.78
12963;BME280;6546;49.882;8.666;2023-04-27T02:21:34;100219.00;;;7.59;56.69
12963;BME280;6546;49.882;8.666;2023-04-27T02:24:01;100218.06;;;7.40;57.40
12963;BME280;6546;49.882;8.666;2023-04-27T02:26:27;100221.72;;;7.38;58.24
12963;BME280;6546;49.882;8.666;2023-04-27T02:28:54;100212.94;;;7.21;58.99
12963;BME280;6546;49.882;8.666;2023-04-27T02:31:22;100221.63;;;7.11;59.62
12963;BME280;6546;49.882;8.666;2023-04-27T02:33:50;100222.69;;;7.08;59.81
12963;BME280;6546;49.882;8.666;2023-04-27T02:36:16;100230.69;;;7.05;60.08
12963;BME280;6546;49.882;8.666;2023-04-27T02:38:43;100232.59;;;7.03;60.05
12963;BME280;6546;49.882;8.666;2023-04-27T02:41:10;100227.16;;;6.97;60.31
12963;BME280;6546;49.882;8.666;2023-04-27T02:43:36;100237.84;;;6.92;60.31
12963;BME280;6546;49.882;8.666;2023-04-27T02:46:03;100236.38;;;6.80;60.82
12963;BME280;6546;49.882;8.666;2023-04-27T02:48:30;100240.31;;;6.84;60.83
12963;BME280;6546;49.882;8.666;2023-04-27T02:50:58;100236.91;;;6.74;61.25
12963;BME280;6546;49.882;8.666;2023-04-27T02:53:24;100243.69;;;6.75;61.33
12963;BME280;6546;49.882;8.666;2023-04-27T02:55:51;100237.03;;;6.72;61.57
12963;BME280;6546;49.882;8.666;2023-04-27T02:58:17;100232.28;;;6.58;62.06
12963;BME280;6546;49.882;8.666;2023-04-27T03:00:44;100241.63;;;6.69;61.82
12963;BME280;6546;49.882;8.666;2023-04-27T03:03:11;100233.66;;;6.62;61.92
12963;BME280;6546;49.882;8.666;2023-04-27T03:05:37;100232.13;;;6.60;62.28
12963;BME280;6546;49.882;8.666;2023-04-27T03:08:05;100229.00;;;6.56;62.37
12963;BME280;6546;49.882;8.666;2023-04-27T03:10:31;100224.53;;;6.49;62.71
12963;BME280;6546;49.882;8.666;2023-04-27T03:12:58;100225.19;;;6.41;63.35
12963;BME280;6546;49.882;8.666;2023-04-27T03:15:24;100234.09;;;6.37;63.49
12963;BME280;6546;49.882;8.666;2023-04-27T03:17:51;100235.19;;;6.34;63.58
12963;BME280;6546;49.882;8.666;2023-04-27T03:20:18;100226.78;;;6.32;63.53
12963;BME280;6546;49.882;8.666;2023-04-27T03:22:44;100224.63;;;6.38;63.27
12963;BME280;6546;49.882;8.666;2023-04-27T03:25:12;100233.53;;;6.24;63.83
12963;BME280;6546;49.882;8.666;2023-04-27T03:27:39;100220.56;;;6.25;63.73
12963;BME280;6546;49.882;8.666;2023-04-27T03:30:08;100224.75;;;6.26;63.51
12963;BME280;6546;49.882;8.666;2023-04-27T03:32:35;100234.59;;;6.21;63.81
12963;BME280;6546;49.882;8.666;2023-04-27T03:35:02;100233.03;;;6.30;63.50
12963;BME280;6546;49.882;8.666;2023-04-27T03:37:29;100236.50;;;6.19;64.05
12963;BME280;6546;49.882;8.666;2023-04-27T03:39:56;100237.44;;;6.18;64.15
12963;BME280;6546;49.882;8.666;2023-04-27T03:42:24;100224.31;;;6.21;63.90
12963;BME280;6546;49.882;8.666;2023-04-27T03:44:51;100222.00;;;6.18;63.83
12963;BME280;6546;49.882;8.666;2023-04-27T03:47:17;100211.94;;;6.06;64.27
12963;BME280;6546;49.882;8.666;2023-04-27T03:49:44;100209.59;;;5.93;65.06
12963;BME280;6546;49.882;8.666;2023-04-27T03:52:14;100209.91;;;5.79;65.54
12963;BME280;6546;49.882;8.666;2023-04-27T03:54:40;100222.19;;;5.75;65.82
12963;BME280;6546;49.882;8.666;2023-04-27T03:57:07;100224.94;;;5.83;65.81
12963;BME280;6546;49.882;8.666;2023-04-27T03:59:35;100224.63;;;5.77;65.86
12963;BME280;6546;49.882;8.666;2023-04-27T04:02:02;100224.75;;;5.75;65.79
12963;BME280;6546;49.882;8.666;2023-04-27T04:04:30;100217.88;;;5.76;65.72
12963;BME280;6546;49.882;8.666;2023-04-27T04:06:56;100226.28;;;5.78;65.64
12963;BME280;6546;49.882;8.666;2023-04-27T04:09:23;100233.28;;;5.76;65.68
12963;BME280;6546;49.882;8.666;2023-04-27T04:11:50;100233.84;;;5.79;65.65
12963;BME280;6546;49.882;8.666;2023-04-27T04:14:18;100233.84;;;5.79;65.72
12963;BME280;6546;49.882;8.666;2023-04-27T04:16:46;100239.13;;;5.78;65.75
12963;BME280;6546;49.882;8.666;2023-04-27T04:19:12;100241.44;;;5.81;65.84
12963;BME280;6546;49.882;8.666;2023-04-27T04:21:39;100229.03;;;5.86;65.84
12963;BME280;6546;49.882;8.666;2023-04-27T04:24:06;100230.69;;;5.87;65.93
12963;BME280;6546;49.882;8.666;2023-04-27T04:26:32;100229.59;;;5.90;66.09
12963;BME280;6546;49.882;8.666;2023-04-27T04:28:59;100220.19;;;6.00;65.73
12963;BME280;6546;49.882;8.666;2023-04-27T04:31:26;100221.00;;;6.00;65.84
12963;BME280;6546;49.882;8.666;2023-04-27T04:33:55;100224.69;;;6.07;65.73
12963;BME280;6546;49.882;8.666;2023-04-27T04:36:21;100222.13;;;6.07;65.71
12963;BME280;6546;49.882;8.666;2023-04-27T04:38:48;100223.31;;;6.03;65.79
12963;BME280;6546;49.882;8.666;2023-04-27T04:41:15;100221.00;;;6.00;66.21
12963;BME280;6546;49.882;8.666;2023-04-27T04:43:43;100210.84;;;5.99;66.38
12963;BME280;6546;49.882;8.666;2023-04-27T04:46:10;100219.66;;;6.06;66.18
12963;BME280;6546;49.882;8.666;2023-04-27T04:48:36;100226.13;;;6.00;66.42
12963;BME280;6546;49.882;8.666;2023-04-27T04:51:05;100228.72;;;6.00;66.63
12963;BME280;6546;49.882;8.666;2023-04-27T04:53:31;100241.31;;;6.03;66.64
12963;BME280;6546;49.882;8.666;2023-04-27T04:56:07;100237.13;;;6.12;66.47
12963;BME280;6546;49.882;8.666;2023-04-27T04:58:33;100229.19;;;6.24;66.24
12963;BME280;6546;49.882;8.666;2023-04-27T05:01:00;100242.78;;;6.36;65.20
12963;BME280;6546;49.882;8.666;2023-04-27T05:03:27;100240.34;;;6.44;64.93
12963;BME280;6546;49.882;8.666;2023-04-27T05:05:53;100236.59;;;6.48;64.38
12963;BME280;6546;49.882;8.666;2023-04-27T05:08:21;100249.19;;;6.61;64.14
12963;BME280;6546;49.882;8.666;2023-04-27T05:10:48;100243.94;;;6.72;63.48
12963;BME280;6546;49.882;8.666;2023-04-27T05:13:15;100242.88;;;6.84;63.18
12963;BME280;6546;49.882;8.666;2023-04-27T05:15:42;100245.03;;;6.98;62.72
12963;BME280;6546;49.882;8.666;2023-04-27T05:18:08;100240.97;;;7.05;61.69
12963;BME280;6546;49.882;8.666;2023-04-27T05:20:35;100248.88;;;7.13;61.63
12963;BME280;6546;49.882;8.666;2023-04-27T05:23:02;100254.81;;;7.23;61.46
12963;BME280;6546;49.882;8.666;2023-04-27T05:25:30;100256.16;;;7.27;60.74
12963;BME280;6546;49.882;8.666;2023-04-27T05:27:57;100253.72;;;7.26;61.01
12963;BME280;6546;49.882;8.666;2023-04-27T05:30:24;100258.59;;;7.29;61.03
12963;BME280;6546;49.882;8.666;2023-04-27T05:32:51;100262.56;;;7.33;60.86
12963;BME280;6546;49.882;8.666;2023-04-27T05:35:17;100257.94;;;7.36;60.74
12963;BME280;6546;49.882;8.666;2023-04-27T05:37:44;100272.69;;;7.44;60.84
12963;BME280;6546;49.882;8.666;2023-04-27T05:40:13;100269.16;;;7.55;60.03
12963;BME280;6546;49.882;8.666;2023-04-27T05:42:41;100269.97;;;7.55;60.36
12963;BME280;6546;49.882;8.666;2023-04-27T05:45:08;100266.69;;;7.63;60.06
12963;BME280;6546;49.882;8.666;2023-04-27T05:47:35;100275.09;;;7.74;59.72
12963;BME280;6546;49.882;8.666;2023-04-27T05:50:01;100272.22;;;7.87;59.52
12963;BME280;6546;49.882;8.666;2023-04-27T05:52:28;100272.84;;;8.72;58.70
12963;BME280;6546;49.882;8.666;2023-04-27T05:54:56;100277.72;;;11.31;49.54
12963;BME280;6546;49.882;8.666;2023-04-27T05:57:23;100271.50;;;14.32;41.89
12963;BME280;6546;49.882;8.666;2023-04-27T05:59:52;100267.72;;;15.98;36.13
12963;BME280;6546;49.882;8.666;2023-04-27T06:02:18;100268.41;;;17.34;33.47
12963;BME280;6546;49.882;8.666;2023-04-27T06:04:45;100274.06;;;19.23;29.91
12963;BME280;6546;49.882;8.666;2023-04-27T06:07:13;100281.94;;;19.98;28.25
12963;BME280;6546;49.882;8.666;2023-04-27T06:09:40;100286.59;;;21.16;26.42
12963;BME280;6546;49.882;8.666;2023-04-27T06:12:08;100278.72;;;22.21;24.61
12963;BME280;6546;49.882;8.666;2023-04-27T06:14:35;100279.28;;;22.34;23.70
12963;BME280;6546;49.882;8.666;2023-04-27T06:17:03;100282.31;;;22.66;23.00
12963;BME280;6546;49.882;8.666;2023-04-27T06:19:30;100292.47;;;23.64;22.54
12963;BME280;6546;49.882;8.666;2023-04-27T06:21:56;100292.03;;;23.72;21.08
12963;BME280;6546;49.882;8.666;2023-04-27T06:24:23;100294.44;;;23.90;21.25
12963;BME280;6546;49.882;8.666;2023-04-27T06:26:49;100295.84;;;23.98;21.21
12963;BME280;6546;49.882;8.666;2023-04-27T06:29:16;100294.19;;;23.75;21.32
12963;BME280;6546;49.882;8.666;2023-04-27T06:31:43;100294.81;;;24.86;20.32
12963;BME280;6546;49.882;8.666;2023-04-27T06:34:11;100293.34;;;25.27;20.15
12963;BME280;6546;49.882;8.666;2023-04-27T06:36:37;100300.53;;;24.51;19.55
12963;BME280;6546;49.882;8.666;2023-04-27T06:39:04;100300.06;;;23.77;20.34
12963;BME280;6546;49.882;8.666;2023-04-27T06:41:30;100295.75;;;24.10;20.28
12963;BME280;6546;49.882;8.666;2023-04-27T06:43:58;100304.69;;;23.37;20.37
12963;BME280;6546;49.882;8.666;2023-04-27T06:46:24;100290.97;;;22.38;21.23
12963;BME280;6546;49.882;8.666;2023-04-27T06:48:51;100296.34;;;21.39;23.09
12963;BME280;6546;49.882;8.666;2023-04-27T06:51:19;100292.91;;;19.45;25.08
12963;BME280;6546;49.882;8.666;2023-04-27T06:53:46;100293.69;;;18.32;27.64
12963;BME280;6546;49.882;8.666;2023-04-27T06:56:12;100300.44;;;17.82;28.51
12963;BME280;6546;49.882;8.666;2023-04-27T06:58:39;100298.69;;;18.53;27.71
12963;BME280;6546;49.882;8.666;2023-04-27T07:01:05;100295.78;;;19.37;27.34
12963;BME280;6546;49.882;8.666;2023-04-27T07:03:33;100295.66;;;19.81;26.75
12963;BME280;6546;49.882;8.666;2023-04-27T07:06:00;100295.88;;;19.80;25.70
12963;BME280;6546;49.882;8.666;2023-04-27T07:08:28;100301.38;;;18.84;26.27
12963;BME280;6546;49.882;8.666;2023-04-27T07:10:55;100299.06;;;17.60;28.00
12963;BME280;6546;49.882;8.666;2023-04-27T07:13:21;100297.97;;;17.08;29.25
12963;BME280;6546;49.882;8.666;2023-04-27T07:15:53;100292.06;;;16.39;29.64
12963;BME280;6546;49.882;8.666;2023-04-27T07:18:20;100301.28;;;16.35;30.52
12963;BME280;6546;49.882;8.666;2023-04-27T07:20:46;100299.84;;;15.92;31.08
12963;BME280;6546;49.882;8.666;2023-04-27T07:23:13;100303.34;;;15.50;31.78
12963;BME280;6546;49.882;8.666;2023-04-27T07:25:40;100296.72;;;15.11;33.02
12963;BME280;6546;49.882;8.666;2023-04-27T07:28:07;100302.34;;;14.43;33.15
12963;BME280;6546;49.882;8.666;2023-04-27T07:30:34;100305.38;;;14.32;34.78
12963;BME280;6546;49.882;8.666;2023-04-27T07:33:01;100297.19;;;14.06;34.94
12963;BME280;6546;49.882;8.666;2023-04-27T07:35:27;100303.97;;;14.15;35.11
12963;BME280;6546;49.882;8.666;2023-04-27T07:37:54;100302.84;;;14.09;34.57
12963;BME280;6546;49.882;8.666;2023-04-27T07:40:21;100293.78;;;14.20;34.79
12963;BME280;6546;49.882;8.666;2023-04-27T07:42:50;100288.31;;;13.86;35.33
12963;BME280;6546;49.882;8.666;2023-04-27T07:45:16;100295.50;;;14.13;35.75
12963;BME280;6546;49.882;8.666;2023-04-27T07:47:43;100298.13;;;14.42;35.12
12963;BME280;6546;49.882;8.666;2023-04-27T07:50:10;100297.75;;;14.45;34.38
12963;BME280;6546;49.882;8.666;2023-04-27T07:52:38;100297.88;;;14.37;33.92
12963;BME280;6546;49.882;8.666;2023-04-27T07:55:05;100298.50;;;14.54;35.40
12963;BME280;6546;49.882;8.666;2023-04-27T07:57:32;100298.22;;;14.63;34.41
12963;BME280;6546;49.882;8.666;2023-04-27T08:00:00;100292.19;;;14.48;35.02
12963;BME280;6546;49.882;8.666;2023-04-27T08:02:32;100294.25;;;14.38;33.86
12963;BME280;6546;49.882;8.666;2023-04-27T08:04:59;100292.66;;;14.37;34.43
12963;BME280;6546;49.882;8.666;2023-04-27T08:07:27;100296.13;;;14.30;34.63
12963;BME280;6546;49.882;8.666;2023-04-27T08:09:53;100301.19;;;14.31;33.83
12963;BME280;6546;49.882;8.666;2023-04-27T08:12:20;100293.00;;;14.05;34.57
12963;BME280;6546;49.882;8.666;2023-04-27T08:14:47;100291.28;;;13.97;34.56
12963;BME280;6546;49.882;8.666;2023-04-27T08:17:14;100290.81;;;13.94;34.84
12963;BME280;6546;49.882;8.666;2023-04-27T08:19:42;100287.50;;;14.00;34.37
12963;BME280;6546;49.882;8.666;2023-04-27T08:22:09;100275.56;;;14.20;35.60
12963;BME280;6546;49.882;8.666;2023-04-27T08:24:36;100283.66;;;14.54;34.10
12963;BME280;6546;49.882;8.666;2023-04-27T08:27:02;100286.38;;;14.46;34.38
12963;BME280;6546;49.882;8.666;2023-04-27T08:29:29;100290.75;;;14.46;34.26
12963;BME280;6546;49.882;8.666;2023-04-27T08:31:58;100287.72;;;14.42;33.67
12963;BME280;6546;49.882;8.666;2023-04-27T08:34:27;100283.47;;;14.41;33.99
12963;BME280;6546;49.882;8.666;2023-04-27T08:36:54;100281.53;;;14.43;35.00
12963;BME280;6546;49.882;8.666;2023-04-27T08:39:22;100277.41;;;14.34;34.42
12963;BME280;6546;49.882;8.666;2023-04-27T08:41:48;100277.53;;;14.33;34.28
12963;BME280;6546;49.882;8.666;2023-04-27T08:44:16;100279.25;;;14.55;34.59
12963;BME280;6546;49.882;8.666;2023-04-27T08:46:43;100269.56;;;14.85;35.15
12963;BME280;6546;49.882;8.666;2023-04-27T08:49:09;100268.66;;;14.92;34.87
12963;BME280;6546;49.882;8.666;2023-04-27T08:51:37;100273.56;;;15.02;33.58
12963;BME280;6546;49.882;8.666;2023-04-27T08:54:04;100278.53;;;15.18;32.76
12963;BME280;6546;49.882;8.666;2023-04-27T08:56:31;100269.78;;;15.04;33.05
12963;BME280;6546;49.882;8.666;2023-04-27T08:58:57;100271.47;;;15.12;33.85
12963;BME280;6546;49.882;8.666;2023-04-27T09:01:26;100276.53;;;14.99;33.13
12963;BME280;6546;49.882;8.666;2023-04-27T09:03:55;100278.66;;;15.10;33.76
12963;BME280;6546;49.882;8.666;2023-04-27T09:06:28;100279.06;;;15.13;33.57
12963;BME280;6546;49.882;8.666;2023-04-27T09:08:57;100275.19;;;15.24;32.93
12963;BME280;6546;49.882;8.666;2023-04-27T09:11:28;100281.50;;;15.36;33.21
12963;BME280;6546;49.882;8.666;2023-04-27T09:13:56;100273.56;;;15.44;32.71
12963;BME280;6546;49.882;8.666;2023-04-27T09:16:24;100274.59;;;15.29;32.98
12963;BME280;6546;49.882;8.666;2023-04-27T09:18:52;100266.34;;;15.25;32.86
12963;BME280;6546;49.882;8.666;2023-04-27T09:21:23;100263.22;;;15.36;32.78
12963;BME280;6546;49.882;8.666;2023-04-27T09:23:50;100268.09;;;15.60;33.50
12963;BME280;6546;49.882;8.666;2023-04-27T09:26:22;100265.09;;;15.63;32.43
12963;BME280;6546;49.882;8.666;2023-04-27T09:28:50;100264.84;;;15.58;32.12
12963;BME280;6546;49.882;8.666;2023-04-27T09:31:17;100261.00;;;15.54;32.23
12963;BME280;6546;49.882;8.666;2023-04-27T09:33:45;100259.50;;;15.66;32.79
12963;BME280;6546;49.882;8.666;2023-04-27T09:36:12;100256.81;;;15.88;32.91
12963;BME280;6546;49.882;8.666;2023-04-27T09:38:39;100265.59;;;16.08;33.41
12963;BME280;6546;49.882;8.666;2023-04-27T09:41:06;100257.31;;;16.04;31.70
12963;BME280;6546;49.882;8.666;2023-04-27T09:43:35;100257.75;;;16.08;31.58
12963;BME280;6546;49.882;8.666;2023-04-27T09:46:03;100248.03;;;15.95;31.82
12963;BME280;6546;49.882;8.666;2023-04-27T09:48:29;100249.78;;;16.22;33.30
12963;BME280;6546;49.882;8.666;2023-04-27T09:50:56;100247.50;;;16.54;34.06
12963;BME280;6546;49.882;8.666;2023-04-27T09:53:26;100256.03;;;16.75;30.03
12963;BME280;6546;49.882;8.666;2023-04-27T09:56:07;100248.63;;;16.79;30.54
12963;BME280;6546;49.882;8.666;2023-04-27T09:58:54;100242.78;;;16.84;29.70
12963;BME280;6546;49.882;8.666;2023-04-27T10:01:27;100244.41;;;16.91;29.98
12963;BME280;6546;49.882;8.666;2023-04-27T10:04:10;100236.78;;;16.90;30.85
12963;BME280;6546;49.882;8.666;2023-04-27T10:06:51;100246.03;;;16.99;32.21
12963;BME280;6546;49.882;8.666;2023-04-27T10:09:19;100240.41;;;17.15;32.82
12963;BME280;6546;49.882;8.666;2023-04-27T10:11:48;100235.19;;;17.15;30.03
12963;BME280;6546;49.882;8.666;2023-04-27T10:14:17;100243.63;;;17.30;30.22
12963;BME280;6546;49.882;8.666;2023-04-27T10:16:45;100238.00;;;17.33;29.52
12963;BME280;6546;49.882;8.666;2023-04-27T10:19:12;100223.69;;;17.09;29.38
12963;BME280;6546;49.882;8.666;2023-04-27T10:21:50;100237.78;;;17.02;29.46
12963;BME280;6546;49.882;8.666;2023-04-27T10:24:17;100228.13;;;17.02;29.81
12963;BME280;6546;49.882;8.666;2023-04-27T10:26:45;100235.56;;;16.99;29.60
12963;BME280;6546;49.882;8.666;2023-04-27T10:29:12;100228.91;;;16.83;29.31
12963;BME280;6546;49.882;8.666;2023-04-27T10:31:45;100235.34;;;16.33;29.66
12963;BME280;6546;49.882;8.666;2023-04-27T10:34:15;100227.78;;;16.04;30.83
12963;BME280;6546;49.882;8.666;2023-04-27T10:36:42;100219.16;;;16.10;31.01
12963;BME280;6546;49.882;8.666;2023-04-27T10:39:15;100225.63;;;16.14;30.80
12963;BME280;6546;49.882;8.666;2023-04-27T10:41:49;100218.94;;;16.05;30.76
12963;BME280;6546;49.882;8.666;2023-04-27T10:44:17;100225.94;;;15.98;30.88
12963;BME280;6546;49.882;8.666;2023-04-27T10:46:53;100220.91;;;15.96;31.15
12963;BME280;6546;49.882;8.666;2023-04-27T10:49:20;100220.84;;;16.24;32.05
12963;BME280;6546;49.882;8.666;2023-04-27T10:51:49;100211.50;;;16.49;31.56
12963;BME280;6546;49.882;8.666;2023-04-27T10:54:16;100220.81;;;16.71;31.41
12963;BME280;6546;49.882;8.666;2023-04-27T10:56:43;100215.44;;;16.86;31.26
12963;BME280;6546;49.882;8.666;2023-04-27T10:59:09;100212.72;;;16.53;30.14
12963;BME280;6546;49.882;8.666;2023-04-27T11:01:36;100207.94;;;16.57;30.54
12963;BME280;6546;49.882;8.666;2023-04-27T11:04:04;100209.34;;;16.59;30.35
12963;BME280;6546;49.882;8.666;2023-04-27T11:06:31;100208.56;;;16.72;31.84
12963;BME280;6546;49.882;8.666;2023-04-27T11:09:06;100209.78;;;16.83;30.64
12963;BME280;6546;49.882;8.666;2023-04-27T11:11:34;100202.13;;;16.81;30.22
12963;BME280;6546;49.882;8.666;2023-04-27T11:14:01;100196.13;;;17.07;31.40
12963;BME280;6546;49.882;8.666;2023-04-27T11:16:28;100194.13;;;17.22;31.08
12963;BME280;6546;49.882;8.666;2023-04-27T11:18:55;100194.72;;;17.30;30.41
12963;BME280;6546;49.882;8.666;2023-04-27T11:21:22;100194.09;;;17.48;30.09
12963;BME280;6546;49.882;8.666;2023-04-27T11:23:49;100199.94;;;17.44;29.87
12963;BME280;6546;49.882;8.666;2023-04-27T11:26:17;100192.50;;;17.54;29.93
12963;BME280;6546;49.882;8.666;2023-04-27T11:28:56;100199.94;;;17.50;29.48
12963;BME280;6546;49.882;8.666;2023-04-27T11:31:23;100195.13;;;17.60;30.98
12963;BME280;6546;49.882;8.666;2023-04-27T11:33:50;100195.31;;;17.59;29.82
12963;BME280;6546;49.882;8.666;2023-04-27T11:36:17;100184.66;;;17.34;29.38
12963;BME280;6546;49.882;8.666;2023-04-27T11:38:45;100194.50;;;17.39;29.60
12963;BME280;6546;49.882;8.666;2023-04-27T11:41:11;100192.09;;;17.50;31.03
12963;BME280;6546;49.882;8.666;2023-04-27T11:43:40;100194.50;;;17.58;31.51
12963;BME280;6546;49.882;8.666;2023-04-27T11:46:07;100190.88;;;17.66;30.47
12963;BME280;6546;49.882;8.666;2023-04-27T11:48:36;100184.84;;;17.65;28.94
12963;BME280;6546;49.882;8.666;2023-04-27T11:51:03;100183.63;;;17.48;29.79
12963;BME280;6546;49.882;8.666;2023-04-27T11:53:31;100183.63;;;17.48;30.49
12963;BME280;6546;49.882;8.666;2023-04-27T11:56:00;100174.78;;;17.56;34.34
12963;BME280;6546;49.882;8.666;2023-04-27T11:58:31;100177.59;;;17.54;31.29
12963;BME280;6546;49.882;8.666;2023-04-27T12:00:58;100172.34;;;17.54;30.20
12963;BME280;6546;49.882;8.666;2023-04-27T12:03:24;100168.31;;;17.52;29.63
12963;BME280;6546;49.882;8.666;2023-04-27T12:05:51;100172.78;;;17.25;29.21
12963;BME280;6546;49.882;8.666;2023-04-27T12:08:18;100170.59;;;17.09;29.34
12963;BME280;6546;49.882;8.666;2023-04-27T12:10:45;100167.16;;;17.15;30.35
12963;BME280;6546;49.882;8.666;2023-04-27T12:13:13;100163.31;;;17.17;30.53
12963;BME280;6546;49.882;8.666;2023-04-27T12:15:40;100164.13;;;17.31;30.94
12963;BME280;6546;49.882;8.666;2023-04-27T12:18:07;100163.91;;;17.39;29.96
12963;BME280;6546;49.882;8.666;2023-04-27T12:20:34;100157.28;;;17.30;29.34
12963;BME280;6546;49.882;8.666;2023-04-27T12:23:01;100148.63;;;17.10;30.19
12963;BME280;6546;49.882;8.666;2023-04-27T12:25:27;100142.41;;;17.11;30.44
12963;BME280;6546;49.882;8.666;2023-04-27T12:27:54;100153.03;;;17.22;30.03
12963;BME280;6546;49.882;8.666;2023-04-27T12:30:22;100133.13;;;17.28;31.18
12963;BME280;6546;49.882;8.666;2023-04-27T12:32:49;100137.72;;;17.32;30.87
12963;BME280;6546;49.882;8.666;2023-04-27T12:35:16;100137.34;;;17.29;30.75
12963;BME280;6546;49.882;8.666;2023-04-27T12:37:42;100139.34;;;17.40;31.09
12963;BME280;6546;49.882;8.666;2023-04-27T12:40:09;100128.47;;;17.43;30.56
12963;BME280;6546;49.882;8.666;2023-04-27T12:42:36;100131.88;;;17.50;31.01
12963;BME280;6546;49.882;8.666;2023-04-27T12:45:04;100135.69;;;17.54;31.63
12963;BME280;6546;49.882;8.666;2023-04-27T12:47:32;100120.19;;;17.53;30.48
12963;BME280;6546;49.882;8.666;2023-04-27T12:49:59;100128.28;;;17.45;29.57
12963;BME280;6546;49.882;8.666;2023-04-27T12:52:26;100122.03;;;17.39;29.88
12963;BME280;6546;49.882;8.666;2023-04-27T12:54:52;100127.88;;;17.41;31.05
12963;BME280;6546;49.882;8.666;2023-04-27T12:57:23;100128.84;;;17.60;32.44
12963;BME280;6546;49.882;8.666;2023-04-27T12:59:50;100128.00;;;17.72;31.68
12963;BME280;6546;49.882;8.666;2023-04-27T13:02:16;100123.94;;;17.83;32.70
12963;BME280;6546;49.882;8.666;2023-04-27T13:04:44;100123.59;;;17.66;28.94
12963;BME280;6546;49.882;8.666;2023-04-27T13:07:11;100117.13;;;17.69;29.93